sensor_id;sensor_type;location;lat;lon;timestamp;P1;durP1;ratioP1;P2;durP2;ratioP2
68484;SDS011;55472;50.060;21.960;2023-08-17T00:01:14;15.37;;;8.60;;
68484;SDS011;55472;50.060;21.960;2023-08-17T00:03:40;14.48;;;8.70;;
68484;SDS011;55472;50.060;21.960;2023-08-17T00:06:07;14.80;;;8.68;;
68484;SDS011;55472;50.060;21.960;2023-08-17T00:08:33;13.52;;;8.65;;
68484;SDS011;55472;50.060;21.960;2023-08-17T00:10:59;12.82;;;8.63;;
68484;SDS011;55472;50.060;21.960;2023-08-17T00:13:25;16.17;;;9.37;;
68484;SDS011;55472;50.060;21.960;2023-08-17T00:15:51;13.07;;;8.48;;
68484;SDS011;55472;50.060;21.960;2023-08-17T00:18:17;14.95;;;9.20;;
68484;SDS011;55472;50.060;21.960;2023-08-17T00:20:44;13.70;;;8.00;;
68484;SDS011;55472;50.060;21.960;2023-08-17T00:23:10;16.05;;;8.20;;
68484;SDS011;55472;50.060;21.960;2023-08-17T00:25:37;14.00;;;8.27;;
68484;SDS011;55472;50.060;21.960;2023-08-17T00:28:03;13.60;;;8.32;;
68484;SDS011;55472;50.060;21.960;2023-08-17T00:30:29;15.02;;;8.07;;
68484;SDS011;55472;50.060;21.960;2023-08-17T00:32:55;12.25;;;7.97;;
68484;SDS011;55472;50.060;21.960;2023-08-17T00:35:22;11.73;;;7.78;;
68484;SDS011;55472;50.060;21.960;2023-08-17T00:37:47;13.07;;;7.80;;
68484;SDS011;55472;50.060;21.960;2023-08-17T00:40:14;11.98;;;7.72;;
68484;SDS011;55472;50.060;21.960;2023-08-17T00:42:40;12.13;;;7.85;;
68484;SDS011;55472;50.060;21.960;2023-08-17T00:45:06;12.15;;;8.05;;
68484;SDS011;55472;50.060;21.960;2023-08-17T00:47:33;12.60;;;7.82;;
68484;SDS011;55472;50.060;21.960;2023-08-17T00:49:59;12.70;;;8.07;;
68484;SDS011;55472;50.060;21.960;2023-08-17T00:52:26;13.27;;;8.88;;
68484;SDS011;55472;50.060;21.960;2023-08-17T00:54:52;14.50;;;8.43;;
68484;SDS011;55472;50.060;21.960;2023-08-17T00:57:20;15.63;;;8.15;;
68484;SDS011;55472;50.060;21.960;2023-08-17T00:59:47;13.85;;;8.40;;
68484;SDS011;55472;50.060;21.960;2023-08-17T01:02:13;13.33;;;8.60;;
68484;SDS011;55472;50.060;21.960;2023-08-17T01:04:40;17.10;;;8.45;;
68484;SDS011;55472;50.060;21.960;2023-08-17T01:07:06;14.75;;;8.82;;
68484;SDS011;55472;50.060;21.960;2023-08-17T01:09:32;15.02;;;8.77;;
68484;SDS011;55472;50.060;21.960;2023-08-17T01:15:09;14.67;;;8.80;;
68484;SDS011;55472;50.060;21.960;2023-08-17T01:20:21;15.48;;;8.93;;
68484;SDS011;55472;50.060;21.960;2023-08-17T01:22:49;14.93;;;9.02;;
68484;SDS011;55472;50.060;21.960;2023-08-17T01:25:19;15.18;;;9.27;;
68484;SDS011;55472;50.060;21.960;2023-08-17T01:27:45;15.53;;;9.10;;
68484;SDS011;55472;50.060;21.960;2023-08-17T01:30:13;14.43;;;9.43;;
68484;SDS011;55472;50.060;21.960;2023-08-17T01:35:28;20.17;;;9.85;;
68484;SDS011;55472;50.060;21.960;2023-08-17T01:38:04;13.35;;;8.85;;
68484;SDS011;55472;50.060;21.960;2023-08-17T01:40:37;19.27;;;9.60;;
68484;SDS011;55472;50.060;21.960;2023-08-17T01:43:04;16.25;;;9.55;;
68484;SDS011;55472;50.060;21.960;2023-08-17T01:45:31;19.58;;;10.13;;
68484;SDS011;55472;50.060;21.960;2023-08-17T01:47:57;15.25;;;9.13;;
68484;SDS011;55472;50.060;21.960;2023-08-17T01:50:23;14.75;;;9.35;;
68484;SDS011;55472;50.060;21.960;2023-08-17T01:52:49;13.50;;;8.63;;
68484;SDS011;55472;50.060;21.960;2023-08-17T01:55:16;17.13;;;10.00;;
68484;SDS011;55472;50.060;21.960;2023-08-17T01:57:42;16.52;;;10.95;;
68484;SDS011;55472;50.060;21.960;2023-08-17T02:00:09;16.23;;;10.05;;
68484;SDS011;55472;50.060;21.960;2023-08-17T02:02:36;16.83;;;10.82;;
68484;SDS011;55472;50.060;21.960;2023-08-17T02:05:02;15.17;;;10.30;;
68484;SDS011;55472;50.060;21.960;2023-08-17T02:07:29;17.50;;;10.63;;
68484;SDS011;55472;50.060;21.960;2023-08-17T02:09:55;16.95;;;9.90;;
68484;SDS011;55472;50.060;21.960;2023-08-17T02:12:21;17.25;;;10.63;;
68484;SDS011;55472;50.060;21.960;2023-08-17T02:14:47;15.35;;;9.88;;
68484;SDS011;55472;50.060;21.960;2023-08-17T02:17:13;15.57;;;9.53;;
68484;SDS011;55472;50.060;21.960;2023-08-17T02:19:42;15.73;;;9.27;;
68484;SDS011;55472;50.060;21.960;2023-08-17T02:22:08;15.60;;;9.13;;
68484;SDS011;55472;50.060;21.960;2023-08-17T02:24:35;17.00;;;9.40;;
68484;SDS011;55472;50.060;21.960;2023-08-17T02:27:01;16.70;;;9.98;;
68484;SDS011;55472;50.060;21.960;2023-08-17T02:29:28;14.17;;;9.47;;
68484;SDS011;55472;50.060;21.960;2023-08-17T02:31:54;15.13;;;9.48;;
68484;SDS011;55472;50.060;21.960;2023-08-17T02:34:20;15.15;;;9.68;;
68484;SDS011;55472;50.060;21.960;2023-08-17T02:36:46;13.82;;;9.68;;
68484;SDS011;55472;50.060;21.960;2023-08-17T02:39:13;12.57;;;9.40;;
68484;SDS011;55472;50.060;21.960;2023-08-17T02:41:39;14.93;;;9.20;;
68484;SDS011;55472;50.060;21.960;2023-08-17T02:44:05;14.40;;;9.30;;
68484;SDS011;55472;50.060;21.960;2023-08-17T02:46:31;14.73;;;9.48;;
68484;SDS011;55472;50.060;21.960;2023-08-17T02:48:57;17.17;;;9.57;;
68484;SDS011;55472;50.060;21.960;2023-08-17T02:51:23;14.88;;;9.23;;
68484;SDS011;55472;50.060;21.960;2023-08-17T02:53:50;13.57;;;9.13;;
68484;SDS011;55472;50.060;21.960;2023-08-17T02:56:16;14.82;;;9.10;;
68484;SDS011;55472;50.060;21.960;2023-08-17T02:58:42;15.02;;;9.65;;
68484;SDS011;55472;50.060;21.960;2023-08-17T03:01:08;14.45;;;9.55;;
68484;SDS011;55472;50.060;21.960;2023-08-17T03:03:37;15.32;;;9.38;;
68484;SDS011;55472;50.060;21.960;2023-08-17T03:06:04;15.70;;;9.67;;
68484;SDS011;55472;50.060;21.960;2023-08-17T03:08:31;14.85;;;9.18;;
68484;SDS011;55472;50.060;21.960;2023-08-17T03:10:57;13.18;;;9.77;;
68484;SDS011;55472;50.060;21.960;2023-08-17T03:13:23;14.25;;;9.35;;
68484;SDS011;55472;50.060;21.960;2023-08-17T03:15:49;15.27;;;9.85;;
68484;SDS011;55472;50.060;21.960;2023-08-17T03:18:16;14.47;;;9.27;;
68484;SDS011;55472;50.060;21.960;2023-08-17T03:20:43;14.82;;;9.70;;
68484;SDS011;55472;50.060;21.960;2023-08-17T03:23:11;16.13;;;9.75;;
68484;SDS011;55472;50.060;21.960;2023-08-17T03:25:37;13.38;;;9.25;;
68484;SDS011;55472;50.060;21.960;2023-08-17T03:28:03;14.82;;;9.98;;
68484;SDS011;55472;50.060;21.960;2023-08-17T03:30:29;14.33;;;9.90;;
68484;SDS011;55472;50.060;21.960;2023-08-17T03:32:56;14.88;;;9.98;;
68484;SDS011;55472;50.060;21.960;2023-08-17T03:35:22;13.57;;;9.50;;
68484;SDS011;55472;50.060;21.960;2023-08-17T03:37:48;15.77;;;9.35;;
68484;SDS011;55472;50.060;21.960;2023-08-17T03:40:15;15.95;;;9.57;;
68484;SDS011;55472;50.060;21.960;2023-08-17T03:42:41;13.33;;;9.23;;
68484;SDS011;55472;50.060;21.960;2023-08-17T03:45:07;16.40;;;9.40;;
68484;SDS011;55472;50.060;21.960;2023-08-17T03:47:34;15.13;;;9.27;;
68484;SDS011;55472;50.060;21.960;2023-08-17T03:50:00;14.75;;;9.52;;
68484;SDS011;55472;50.060;21.960;2023-08-17T03:52:26;16.77;;;9.57;;
68484;SDS011;55472;50.060;21.960;2023-08-17T03:54:52;14.27;;;9.00;;
68484;SDS011;55472;50.060;21.960;2023-08-17T03:57:19;14.98;;;9.43;;
68484;SDS011;55472;50.060;21.960;2023-08-17T03:59:45;14.93;;;9.48;;
68484;SDS011;55472;50.060;21.960;2023-08-17T04:02:11;15.40;;;9.50;;
68484;SDS011;55472;50.060;21.960;2023-08-17T04:04:37;13.10;;;9.43;;
68484;SDS011;55472;50.060;21.960;2023-08-17T04:07:03;14.87;;;9.40;;
68484;SDS011;55472;50.060;21.960;2023-08-17T04:09:29;14.65;;;9.18;;
68484;SDS011;55472;50.060;21.960;2023-08-17T04:11:56;13.88;;;9.45;;
68484;SDS011;55472;50.060;21.960;2023-08-17T04:14:22;17.00;;;8.98;;
68484;SDS011;55472;50.060;21.960;2023-08-17T04:16:49;13.10;;;9.20;;
68484;SDS011;55472;50.060;21.960;2023-08-17T04:19:15;15.77;;;9.43;;
68484;SDS011;55472;50.060;21.960;2023-08-17T04:21:41;20.58;;;12.63;;
68484;SDS011;55472;50.060;21.960;2023-08-17T04:24:07;21.83;;;13.27;;
68484;SDS011;55472;50.060;21.960;2023-08-17T04:26:33;19.92;;;12.55;;
68484;SDS011;55472;50.060;21.960;2023-08-17T04:28:59;24.63;;;13.57;;
68484;SDS011;55472;50.060;21.960;2023-08-17T04:31:25;24.87;;;14.33;;
68484;SDS011;55472;50.060;21.960;2023-08-17T04:33:52;24.90;;;15.23;;
68484;SDS011;55472;50.060;21.960;2023-08-17T04:36:18;24.85;;;14.60;;
68484;SDS011;55472;50.060;21.960;2023-08-17T04:38:44;24.42;;;13.98;;
68484;SDS011;55472;50.060;21.960;2023-08-17T04:41:10;21.48;;;13.45;;
68484;SDS011;55472;50.060;21.960;2023-08-17T04:43:36;22.03;;;12.73;;
68484;SDS011;55472;50.060;21.960;2023-08-17T04:46:02;25.50;;;13.35;;
68484;SDS011;55472;50.060;21.960;2023-08-17T04:48:28;25.42;;;13.18;;
68484;SDS011;55472;50.060;21.960;2023-08-17T04:50:55;25.42;;;14.00;;
68484;SDS011;55472;50.060;21.960;2023-08-17T04:53:21;23.13;;;13.55;;
68484;SDS011;55472;50.060;21.960;2023-08-17T04:55:47;26.70;;;13.20;;
68484;SDS011;55472;50.060;21.960;2023-08-17T04:58:13;23.05;;;13.40;;
68484;SDS011;55472;50.060;21.960;2023-08-17T05:00:40;22.92;;;12.95;;
68484;SDS011;55472;50.060;21.960;2023-08-17T05:03:06;21.27;;;12.57;;
68484;SDS011;55472;50.060;21.960;2023-08-17T05:05:33;21.13;;;12.68;;
68484;SDS011;55472;50.060;21.960;2023-08-17T05:08:01;21.70;;;12.83;;
68484;SDS011;55472;50.060;21.960;2023-08-17T05:10:27;21.73;;;13.15;;
68484;SDS011;55472;50.060;21.960;2023-08-17T05:12:53;21.75;;;12.93;;
68484;SDS011;55472;50.060;21.960;2023-08-17T05:15:21;21.48;;;13.27;;
68484;SDS011;55472;50.060;21.960;2023-08-17T05:17:47;19.83;;;12.48;;
68484;SDS011;55472;50.060;21.960;2023-08-17T05:20:13;19.20;;;12.50;;
68484;SDS011;55472;50.060;21.960;2023-08-17T05:22:40;22.00;;;12.93;;
68484;SDS011;55472;50.060;21.960;2023-08-17T05:25:06;22.50;;;12.73;;
68484;SDS011;55472;50.060;21.960;2023-08-17T05:27:33;19.55;;;11.35;;
68484;SDS011;55472;50.060;21.960;2023-08-17T05:29:59;20.10;;;12.25;;
68484;SDS011;55472;50.060;21.960;2023-08-17T05:32:25;19.83;;;12.70;;
68484;SDS011;55472;50.060;21.960;2023-08-17T05:34:51;22.00;;;11.75;;
68484;SDS011;55472;50.060;21.960;2023-08-17T05:37:18;17.90;;;11.13;;
68484;SDS011;55472;50.060;21.960;2023-08-17T05:39:44;19.20;;;10.38;;
68484;SDS011;55472;50.060;21.960;2023-08-17T05:42:10;18.77;;;10.50;;
68484;SDS011;55472;50.060;21.960;2023-08-17T05:44:36;16.23;;;10.47;;
68484;SDS011;55472;50.060;21.960;2023-08-17T05:47:02;22.05;;;12.02;;
68484;SDS011;55472;50.060;21.960;2023-08-17T05:49:29;19.98;;;10.27;;
68484;SDS011;55472;50.060;21.960;2023-08-17T05:51:55;18.95;;;10.80;;
68484;SDS011;55472;50.060;21.960;2023-08-17T05:54:21;17.60;;;10.20;;
68484;SDS011;55472;50.060;21.960;2023-08-17T05:56:47;17.00;;;10.60;;
68484;SDS011;55472;50.060;21.960;2023-08-17T05:59:14;19.80;;;10.32;;
68484;SDS011;55472;50.060;21.960;2023-08-17T06:01:40;17.05;;;10.35;;
68484;SDS011;55472;50.060;21.960;2023-08-17T06:04:06;16.77;;;10.13;;
68484;SDS011;55472;50.060;21.960;2023-08-17T06:06:33;16.60;;;10.07;;
68484;SDS011;55472;50.060;21.960;2023-08-17T06:09:00;15.90;;;10.40;;
68484;SDS011;55472;50.060;21.960;2023-08-17T06:11:26;15.32;;;10.00;;
68484;SDS011;55472;50.060;21.960;2023-08-17T06:13:52;16.73;;;10.32;;
68484;SDS011;55472;50.060;21.960;2023-08-17T06:16:18;25.65;;;10.90;;
68484;SDS011;55472;50.060;21.960;2023-08-17T06:18:44;14.80;;;9.10;;
68484;SDS011;55472;50.060;21.960;2023-08-17T06:21:11;15.73;;;9.53;;
68484;SDS011;55472;50.060;21.960;2023-08-17T06:23:37;15.60;;;9.30;;
68484;SDS011;55472;50.060;21.960;2023-08-17T06:26:03;14.00;;;9.52;;
68484;SDS011;55472;50.060;21.960;2023-08-17T06:28:30;16.42;;;9.75;;
68484;SDS011;55472;50.060;21.960;2023-08-17T06:30:56;17.73;;;9.80;;
68484;SDS011;55472;50.060;21.960;2023-08-17T06:33:22;17.03;;;9.57;;
68484;SDS011;55472;50.060;21.960;2023-08-17T06:35:49;16.20;;;9.65;;
68484;SDS011;55472;50.060;21.960;2023-08-17T06:38:15;19.02;;;9.95;;
68484;SDS011;55472;50.060;21.960;2023-08-17T06:40:41;17.15;;;9.30;;
68484;SDS011;55472;50.060;21.960;2023-08-17T06:43:08;15.57;;;9.77;;
68484;SDS011;55472;50.060;21.960;2023-08-17T06:45:35;18.77;;;9.83;;
68484;SDS011;55472;50.060;21.960;2023-08-17T06:48:01;16.90;;;9.00;;
68484;SDS011;55472;50.060;21.960;2023-08-17T06:50:27;16.08;;;9.20;;
68484;SDS011;55472;50.060;21.960;2023-08-17T06:52:54;14.77;;;8.38;;
68484;SDS011;55472;50.060;21.960;2023-08-17T06:55:20;16.92;;;8.82;;
68484;SDS011;55472;50.060;21.960;2023-08-17T06:57:47;14.90;;;8.63;;
68484;SDS011;55472;50.060;21.960;2023-08-17T07:00:17;13.30;;;8.48;;
68484;SDS011;55472;50.060;21.960;2023-08-17T07:02:47;15.18;;;8.38;;
68484;SDS011;55472;50.060;21.960;2023-08-17T07:05:15;15.90;;;8.15;;
68484;SDS011;55472;50.060;21.960;2023-08-17T07:07:43;12.57;;;7.72;;
68484;SDS011;55472;50.060;21.960;2023-08-17T07:10:10;15.00;;;7.97;;
68484;SDS011;55472;50.060;21.960;2023-08-17T07:12:39;12.35;;;8.30;;
68484;SDS011;55472;50.060;21.960;2023-08-17T07:15:06;13.80;;;8.10;;
68484;SDS011;55472;50.060;21.960;2023-08-17T07:17:32;16.75;;;9.40;;
68484;SDS011;55472;50.060;21.960;2023-08-17T07:20:02;17.02;;;8.48;;
68484;SDS011;55472;50.060;21.960;2023-08-17T07:22:32;19.07;;;9.37;;
68484;SDS011;55472;50.060;21.960;2023-08-17T07:24:58;14.80;;;9.40;;
68484;SDS011;55472;50.060;21.960;2023-08-17T07:27:25;14.80;;;8.30;;
68484;SDS011;55472;50.060;21.960;2023-08-17T07:29:51;14.77;;;8.25;;
68484;SDS011;55472;50.060;21.960;2023-08-17T07:32:18;13.60;;;8.07;;
68484;SDS011;55472;50.060;21.960;2023-08-17T07:34:44;11.63;;;7.90;;
68484;SDS011;55472;50.060;21.960;2023-08-17T07:37:10;14.93;;;7.90;;
68484;SDS011;55472;50.060;21.960;2023-08-17T07:39:36;11.88;;;7.32;;
68484;SDS011;55472;50.060;21.960;2023-08-17T07:42:03;15.48;;;7.65;;
68484;SDS011;55472;50.060;21.960;2023-08-17T07:44:29;10.57;;;6.65;;
68484;SDS011;55472;50.060;21.960;2023-08-17T07:46:57;12.77;;;6.60;;
68484;SDS011;55472;50.060;21.960;2023-08-17T07:49:24;11.63;;;6.68;;
68484;SDS011;55472;50.060;21.960;2023-08-17T07:51:51;9.02;;;6.30;;
68484;SDS011;55472;50.060;21.960;2023-08-17T07:54:17;11.18;;;6.80;;
68484;SDS011;55472;50.060;21.960;2023-08-17T07:56:43;13.32;;;6.70;;
68484;SDS011;55472;50.060;21.960;2023-08-17T07:59:09;9.93;;;6.50;;
68484;SDS011;55472;50.060;21.960;2023-08-17T08:01:36;13.20;;;6.43;;
68484;SDS011;55472;50.060;21.960;2023-08-17T08:04:02;13.50;;;6.20;;
68484;SDS011;55472;50.060;21.960;2023-08-17T08:06:29;13.32;;;6.10;;
68484;SDS011;55472;50.060;21.960;2023-08-17T08:08:55;10.82;;;5.97;;
68484;SDS011;55472;50.060;21.960;2023-08-17T08:11:21;10.73;;;6.37;;
68484;SDS011;55472;50.060;21.960;2023-08-17T08:13:47;11.95;;;6.13;;
68484;SDS011;55472;50.060;21.960;2023-08-17T08:16:14;11.20;;;6.30;;
68484;SDS011;55472;50.060;21.960;2023-08-17T08:18:40;11.05;;;6.10;;
68484;SDS011;55472;50.060;21.960;2023-08-17T08:21:06;11.40;;;5.78;;
68484;SDS011;55472;50.060;21.960;2023-08-17T08:23:32;13.83;;;6.80;;
68484;SDS011;55472;50.060;21.960;2023-08-17T08:25:59;11.68;;;6.10;;
68484;SDS011;55472;50.060;21.960;2023-08-17T08:28:25;9.90;;;6.65;;
68484;SDS011;55472;50.060;21.960;2023-08-17T08:30:51;13.23;;;6.22;;
68484;SDS011;55472;50.060;21.960;2023-08-17T08:33:18;11.10;;;6.43;;
68484;SDS011;55472;50.060;21.960;2023-08-17T08:35:44;12.20;;;7.07;;
68484;SDS011;55472;50.060;21.960;2023-08-17T08:38:11;13.40;;;7.00;;
68484;SDS011;55472;50.060;21.960;2023-08-17T08:40:39;12.13;;;6.93;;
68484;SDS011;55472;50.060;21.960;2023-08-17T08:43:06;16.48;;;7.80;;
68484;SDS011;55472;50.060;21.960;2023-08-17T08:45:35;11.18;;;7.20;;
68484;SDS011;55472;50.060;21.960;2023-08-17T08:48:02;13.93;;;6.77;;
68484;SDS011;55472;50.060;21.960;2023-08-17T08:50:31;15.90;;;6.97;;
68484;SDS011;55472;50.060;21.960;2023-08-17T08:52:59;13.35;;;7.40;;
68484;SDS011;55472;50.060;21.960;2023-08-17T08:55:30;13.63;;;6.85;;
68484;SDS011;55472;50.060;21.960;2023-08-17T08:58:02;12.35;;;6.90;;
68484;SDS011;55472;50.060;21.960;2023-08-17T09:00:30;12.13;;;6.90;;
68484;SDS011;55472;50.060;21.960;2023-08-17T09:02:59;10.95;;;6.78;;
68484;SDS011;55472;50.060;21.960;2023-08-17T09:05:31;9.98;;;6.50;;
68484;SDS011;55472;50.060;21.960;2023-08-17T09:07:59;14.05;;;6.38;;
68484;SDS011;55472;50.060;21.960;2023-08-17T09:10:28;10.63;;;6.38;;
68484;SDS011;55472;50.060;21.960;2023-08-17T09:12:54;11.67;;;6.30;;
68484;SDS011;55472;50.060;21.960;2023-08-17T09:15:20;16.17;;;6.03;;
68484;SDS011;55472;50.060;21.960;2023-08-17T09:17:46;11.65;;;6.40;;
68484;SDS011;55472;50.060;21.960;2023-08-17T09:20:34;13.95;;;6.72;;
68484;SDS011;55472;50.060;21.960;2023-08-17T09:23:03;12.07;;;6.10;;
68484;SDS011;55472;50.060;21.960;2023-08-17T09:25:30;10.48;;;6.28;;
68484;SDS011;55472;50.060;21.960;2023-08-17T09:27:59;8.63;;;6.03;;
68484;SDS011;55472;50.060;21.960;2023-08-17T09:30:33;15.07;;;6.60;;
68484;SDS011;55472;50.060;21.960;2023-08-17T09:33:01;12.75;;;7.05;;
68484;SDS011;55472;50.060;21.960;2023-08-17T09:35:31;12.00;;;7.00;;
68484;SDS011;55472;50.060;21.960;2023-08-17T09:37:57;15.25;;;6.40;;
68484;SDS011;55472;50.060;21.960;2023-08-17T09:40:25;10.32;;;6.47;;
68484;SDS011;55472;50.060;21.960;2023-08-17T09:42:52;10.45;;;7.00;;
68484;SDS011;55472;50.060;21.960;2023-08-17T09:45:19;8.93;;;6.35;;
68484;SDS011;55472;50.060;21.960;2023-08-17T09:47:46;10.83;;;6.90;;
68484;SDS011;55472;50.060;21.960;2023-08-17T09:50:12;10.77;;;6.57;;
68484;SDS011;55472;50.060;21.960;2023-08-17T09:52:38;12.63;;;6.57;;
68484;SDS011;55472;50.060;21.960;2023-08-17T09:55:05;12.68;;;7.10;;
68484;SDS011;55472;50.060;21.960;2023-08-17T09:57:35;9.57;;;6.55;;
68484;SDS011;55472;50.060;21.960;2023-08-17T10:00:02;10.03;;;7.00;;
68484;SDS011;55472;50.060;21.960;2023-08-17T10:02:28;11.80;;;7.57;;
68484;SDS011;55472;50.060;21.960;2023-08-17T10:04:56;11.25;;;6.90;;
68484;SDS011;55472;50.060;21.960;2023-08-17T10:07:27;11.73;;;6.80;;
68484;SDS011;55472;50.060;21.960;2023-08-17T10:09:58;9.98;;;7.03;;
68484;SDS011;55472;50.060;21.960;2023-08-17T10:12:30;8.93;;;6.23;;
68484;SDS011;55472;50.060;21.960;2023-08-17T10:15:13;13.43;;;7.22;;
68484;SDS011;55472;50.060;21.960;2023-08-17T10:17:46;9.50;;;6.10;;
68484;SDS011;55472;50.060;21.960;2023-08-17T10:20:42;13.55;;;6.63;;
68484;SDS011;55472;50.060;21.960;2023-08-17T10:23:18;12.32;;;6.53;;
68484;SDS011;55472;50.060;21.960;2023-08-17T10:25:48;10.87;;;6.80;;
68484;SDS011;55472;50.060;21.960;2023-08-17T10:28:16;11.27;;;6.40;;
68484;SDS011;55472;50.060;21.960;2023-08-17T10:30:42;9.57;;;6.82;;
68484;SDS011;55472;50.060;21.960;2023-08-17T10:33:09;13.98;;;6.88;;
68484;SDS011;55472;50.060;21.960;2023-08-17T10:35:36;11.23;;;6.22;;
68484;SDS011;55472;50.060;21.960;2023-08-17T10:38:03;11.17;;;6.90;;
68484;SDS011;55472;50.060;21.960;2023-08-17T10:40:38;10.60;;;7.65;;
68484;SDS011;55472;50.060;21.960;2023-08-17T10:43:07;13.13;;;7.22;;
68484;SDS011;55472;50.060;21.960;2023-08-17T10:45:34;10.77;;;7.22;;
68484;SDS011;55472;50.060;21.960;2023-08-17T10:50:33;15.37;;;7.67;;
68484;SDS011;55472;50.060;21.960;2023-08-17T10:53:12;13.23;;;7.43;;
68484;SDS011;55472;50.060;21.960;2023-08-17T10:55:46;14.20;;;7.53;;
68484;SDS011;55472;50.060;21.960;2023-08-17T10:58:17;11.73;;;6.80;;
68484;SDS011;55472;50.060;21.960;2023-08-17T11:00:43;10.35;;;7.20;;
68484;SDS011;55472;50.060;21.960;2023-08-17T11:03:17;9.77;;;6.80;;
68484;SDS011;55472;50.060;21.960;2023-08-17T11:05:46;10.45;;;7.25;;
68484;SDS011;55472;50.060;21.960;2023-08-17T11:10:57;10.90;;;7.07;;
68484;SDS011;55472;50.060;21.960;2023-08-17T11:13:41;15.48;;;6.72;;
68484;SDS011;55472;50.060;21.960;2023-08-17T11:16:10;10.83;;;6.83;;
68484;SDS011;55472;50.060;21.960;2023-08-17T11:18:38;10.32;;;6.50;;
68484;SDS011;55472;50.060;21.960;2023-08-17T11:21:07;10.75;;;7.00;;
68484;SDS011;55472;50.060;21.960;2023-08-17T11:23:35;8.63;;;6.63;;
68484;SDS011;55472;50.060;21.960;2023-08-17T11:26:03;12.88;;;7.15;;
68484;SDS011;55472;50.060;21.960;2023-08-17T11:28:30;10.17;;;6.77;;
68484;SDS011;55472;50.060;21.960;2023-08-17T11:31:05;10.10;;;6.85;;
68484;SDS011;55472;50.060;21.960;2023-08-17T11:33:34;11.45;;;6.85;;
68484;SDS011;55472;50.060;21.960;2023-08-17T11:36:03;11.05;;;6.35;;
68484;SDS011;55472;50.060;21.960;2023-08-17T11:38:32;11.48;;;7.00;;
68484;SDS011;55472;50.060;21.960;2023-08-17T11:41:04;10.03;;;6.50;;
68484;SDS011;55472;50.060;21.960;2023-08-17T11:43:33;12.88;;;6.25;;
68484;SDS011;55472;50.060;21.960;2023-08-17T11:46:00;11.48;;;6.63;;
68484;SDS011;55472;50.060;21.960;2023-08-17T11:48:27;12.02;;;6.47;;
68484;SDS011;55472;50.060;21.960;2023-08-17T11:50:54;11.70;;;7.18;;
68484;SDS011;55472;50.060;21.960;2023-08-17T11:53:20;10.80;;;6.87;;
68484;SDS011;55472;50.060;21.960;2023-08-17T11:55:48;10.02;;;6.63;;
68484;SDS011;55472;50.060;21.960;2023-08-17T11:58:14;11.10;;;6.88;;
68484;SDS011;55472;50.060;21.960;2023-08-17T12:00:45;12.05;;;7.00;;
68484;SDS011;55472;50.060;21.960;2023-08-17T12:03:14;10.50;;;6.70;;
68484;SDS011;55472;50.060;21.960;2023-08-17T12:05:41;12.63;;;7.07;;
68484;SDS011;55472;50.060;21.960;2023-08-17T12:08:09;11.07;;;7.15;;
68484;SDS011;55472;50.060;21.960;2023-08-17T12:10:36;10.25;;;6.80;;
68484;SDS011;55472;50.060;21.960;2023-08-17T12:13:03;10.93;;;6.60;;
68484;SDS011;55472;50.060;21.960;2023-08-17T12:15:30;10.88;;;6.72;;
68484;SDS011;55472;50.060;21.960;2023-08-17T12:18:02;10.00;;;6.60;;
68484;SDS011;55472;50.060;21.960;2023-08-17T12:20:30;10.60;;;6.72;;
68484;SDS011;55472;50.060;21.960;2023-08-17T12:22:58;11.50;;;6.63;;
68484;SDS011;55472;50.060;21.960;2023-08-17T12:25:25;9.55;;;6.68;;
68484;SDS011;55472;50.060;21.960;2023-08-17T12:27:51;10.07;;;6.65;;
68484;SDS011;55472;50.060;21.960;2023-08-17T12:30:31;13.07;;;6.90;;
68484;SDS011;55472;50.060;21.960;2023-08-17T12:32:58;10.90;;;6.45;;
68484;SDS011;55472;50.060;21.960;2023-08-17T12:35:25;13.32;;;6.40;;
68484;SDS011;55472;50.060;21.960;2023-08-17T12:37:52;12.98;;;6.45;;
68484;SDS011;55472;50.060;21.960;2023-08-17T12:40:20;12.27;;;6.70;;
68484;SDS011;55472;50.060;21.960;2023-08-17T12:42:48;9.80;;;6.13;;
68484;SDS011;55472;50.060;21.960;2023-08-17T12:45:15;11.95;;;7.00;;
68484;SDS011;55472;50.060;21.960;2023-08-17T12:47:42;10.35;;;6.28;;
68484;SDS011;55472;50.060;21.960;2023-08-17T12:50:08;9.80;;;6.65;;
68484;SDS011;55472;50.060;21.960;2023-08-17T12:52:35;10.57;;;6.38;;
68484;SDS011;55472;50.060;21.960;2023-08-17T12:55:01;9.20;;;6.20;;
68484;SDS011;55472;50.060;21.960;2023-08-17T12:57:27;12.13;;;6.60;;
68484;SDS011;55472;50.060;21.960;2023-08-17T12:59:54;16.42;;;6.80;;
68484;SDS011;55472;50.060;21.960;2023-08-17T13:02:20;8.27;;;5.95;;
68484;SDS011;55472;50.060;21.960;2023-08-17T13:04:47;16.55;;;6.55;;
68484;SDS011;55472;50.060;21.960;2023-08-17T13:07:13;11.20;;;5.93;;
68484;SDS011;55472;50.060;21.960;2023-08-17T13:09:41;8.35;;;6.07;;
68484;SDS011;55472;50.060;21.960;2023-08-17T13:12:07;10.60;;;6.07;;
68484;SDS011;55472;50.060;21.960;2023-08-17T13:14:34;8.80;;;6.10;;
68484;SDS011;55472;50.060;21.960;2023-08-17T13:17:00;8.52;;;5.90;;
68484;SDS011;55472;50.060;21.960;2023-08-17T13:19:26;11.00;;;5.97;;
68484;SDS011;55472;50.060;21.960;2023-08-17T13:21:52;11.88;;;5.97;;
68484;SDS011;55472;50.060;21.960;2023-08-17T13:24:18;10.43;;;5.97;;
68484;SDS011;55472;50.060;21.960;2023-08-17T13:26:44;9.68;;;6.03;;
68484;SDS011;55472;50.060;21.960;2023-08-17T13:29:11;8.02;;;5.57;;
68484;SDS011;55472;50.060;21.960;2023-08-17T13:31:37;11.70;;;5.70;;
68484;SDS011;55472;50.060;21.960;2023-08-17T13:34:03;9.50;;;5.78;;
68484;SDS011;55472;50.060;21.960;2023-08-17T13:36:29;8.05;;;4.88;;
68484;SDS011;55472;50.060;21.960;2023-08-17T13:38:56;7.75;;;4.90;;
68484;SDS011;55472;50.060;21.960;2023-08-17T13:41:22;9.07;;;4.73;;
68484;SDS011;55472;50.060;21.960;2023-08-17T13:43:50;8.13;;;4.50;;
68484;SDS011;55472;50.060;21.960;2023-08-17T13:46:16;8.80;;;4.40;;
68484;SDS011;55472;50.060;21.960;2023-08-17T13:48:43;9.50;;;4.88;;
68484;SDS011;55472;50.060;21.960;2023-08-17T13:51:09;7.28;;;4.68;;
68484;SDS011;55472;50.060;21.960;2023-08-17T13:53:37;11.05;;;4.75;;
68484;SDS011;55472;50.060;21.960;2023-08-17T13:56:04;8.67;;;4.90;;
68484;SDS011;55472;50.060;21.960;2023-08-17T13:58:30;8.10;;;5.20;;
68484;SDS011;55472;50.060;21.960;2023-08-17T14:00:56;10.07;;;4.88;;
68484;SDS011;55472;50.060;21.960;2023-08-17T14:03:23;9.48;;;5.45;;
68484;SDS011;55472;50.060;21.960;2023-08-17T14:05:49;8.80;;;5.93;;
68484;SDS011;55472;50.060;21.960;2023-08-17T14:08:15;13.10;;;7.27;;
68484;SDS011;55472;50.060;21.960;2023-08-17T14:10:41;8.35;;;5.00;;
68484;SDS011;55472;50.060;21.960;2023-08-17T14:13:08;10.55;;;4.45;;
68484;SDS011;55472;50.060;21.960;2023-08-17T14:15:33;7.25;;;4.78;;
68484;SDS011;55472;50.060;21.960;2023-08-17T14:18:00;6.85;;;4.97;;
68484;SDS011;55472;50.060;21.960;2023-08-17T14:20:26;8.37;;;4.90;;
68484;SDS011;55472;50.060;21.960;2023-08-17T14:22:52;11.27;;;5.13;;
68484;SDS011;55472;50.060;21.960;2023-08-17T14:25:18;10.55;;;5.55;;
68484;SDS011;55472;50.060;21.960;2023-08-17T14:27:44;10.25;;;5.95;;
68484;SDS011;55472;50.060;21.960;2023-08-17T14:30:11;10.82;;;5.50;;
68484;SDS011;55472;50.060;21.960;2023-08-17T14:32:38;9.83;;;5.33;;
68484;SDS011;55472;50.060;21.960;2023-08-17T14:35:04;11.07;;;5.72;;